VOZ651 YSCB-YSSY
Flight info
| Callsign | VOZ651 |
|---|---|
| Flight time | 0h 40m |
| Altitude | 13000 |
| Route | CB W122 AKMIR W113 TESAT |
| Aircraft | SF34/M-SDFGR/S |
Departure
| Time | 2026-05-04 04:42 |
|---|---|
| Airport | Canberra Airport (YSCB) |
Arrival
| Time | 2026-05-04 05:22 |
|---|---|
| Airport | Sydney Kingsford Smith International Airport (YSSY) |
| Time | Latitude | Longitude | Altitude | Speed | Heading |
|---|---|---|---|---|---|
| 2026-05-04 04:01 | -35.30512 | 149.18852 | 1875 ft | 0 kts | 220° |
| 2026-05-04 04:37 | -35.30487 | 149.18943 | 1875 ft | 12 kts | 114° |
| 2026-05-04 04:37 | -35.30550 | 149.19032 | 1873 ft | 16 kts | 131° |
| 2026-05-04 04:38 | -35.30629 | 149.19149 | 1875 ft | 17 kts | 130° |
| 2026-05-04 04:38 | -35.30745 | 149.19240 | 1871 ft | 20 kts | 179° |
| 2026-05-04 04:38 | -35.30908 | 149.19239 | 1875 ft | 26 kts | 180° |
| 2026-05-04 04:38 | -35.31116 | 149.19239 | 1875 ft | 35 kts | 180° |
| 2026-05-04 04:39 | -35.31321 | 149.19239 | 1875 ft | 33 kts | 181° |
| 2026-05-04 04:39 | -35.31459 | 149.19303 | 1874 ft | 8 kts | 117° |
| 2026-05-04 04:39 | -35.31459 | 149.19305 | 1874 ft | 0 kts | 117° |
| 2026-05-04 04:40 | -35.31464 | 149.19317 | 1875 ft | 6 kts | 111° |
| 2026-05-04 04:40 | -35.31470 | 149.19410 | 1875 ft | 9 kts | 91° |
| 2026-05-04 04:40 | -35.31435 | 149.19445 | 1875 ft | 10 kts | 358° |
| 2026-05-04 04:41 | -35.31401 | 149.19445 | 1872 ft | 6 kts | 0° |
| 2026-05-04 04:41 | -35.31209 | 149.19444 | 1875 ft | 59 kts | 359° |
| 2026-05-04 04:41 | -35.30594 | 149.19442 | 1873 ft | 116 kts | 359° |
| 2026-05-04 04:41 | -35.29651 | 149.19447 | 2035 ft | 150 kts | 358° |
| 2026-05-04 04:42 | -35.28591 | 149.19418 | 2665 ft | 153 kts | 354° |
| 2026-05-04 04:42 | -35.27484 | 149.19386 | 3253 ft | 164 kts | 356° |
| 2026-05-04 04:42 | -35.26313 | 149.19395 | 3776 ft | 174 kts | 357° |
| 2026-05-04 04:42 | -35.25268 | 149.19969 | 4753 ft | 167 kts | 42° |
| 2026-05-04 04:43 | -35.24753 | 149.21164 | 5602 ft | 154 kts | 43° |
| 2026-05-04 04:43 | -35.23987 | 149.22016 | 6173 ft | 146 kts | 22° |
| 2026-05-04 04:43 | -35.23195 | 149.22778 | 6823 ft | 147 kts | 24° |
| 2026-05-04 04:43 | -35.22386 | 149.23526 | 7434 ft | 146 kts | 21° |
| 2026-05-04 04:44 | -35.21564 | 149.24266 | 8044 ft | 147 kts | 22° |
| 2026-05-04 04:44 | -35.20737 | 149.25015 | 8654 ft | 148 kts | 21° |
| 2026-05-04 04:44 | -35.19912 | 149.25766 | 9248 ft | 150 kts | 21° |
| 2026-05-04 04:44 | -35.19072 | 149.26525 | 9858 ft | 151 kts | 21° |
| 2026-05-04 04:45 | -35.18223 | 149.27295 | 10394 ft | 152 kts | 22° |
| 2026-05-04 04:45 | -35.17373 | 149.28063 | 10938 ft | 154 kts | 22° |
| 2026-05-04 04:45 | -35.16517 | 149.28845 | 11502 ft | 154 kts | 22° |
| 2026-05-04 04:47 | -35.09918 | 149.34581 | 12860 ft | 258 kts | 26° |
| 2026-05-04 04:47 | -35.08426 | 149.35851 | 13017 ft | 262 kts | 26° |
| 2026-05-04 04:47 | -35.06915 | 149.37105 | 13131 ft | 266 kts | 25° |
| 2026-05-04 04:47 | -35.05368 | 149.38395 | 13122 ft | 272 kts | 26° |
| 2026-05-04 04:48 | -35.03809 | 149.39713 | 13120 ft | 275 kts | 26° |
| 2026-05-04 04:49 | -34.97444 | 149.45023 | 13124 ft | 278 kts | 26° |
| 2026-05-04 04:49 | -34.95852 | 149.46373 | 13121 ft | 280 kts | 27° |
| 2026-05-04 04:49 | -34.94258 | 149.47740 | 13124 ft | 281 kts | 27° |
| 2026-05-04 04:49 | -34.92668 | 149.49117 | 13123 ft | 281 kts | 27° |
| 2026-05-04 04:50 | -34.91077 | 149.50508 | 13121 ft | 282 kts | 27° |
| 2026-05-04 04:50 | -34.89490 | 149.51903 | 13121 ft | 281 kts | 27° |
| 2026-05-04 04:50 | -34.87874 | 149.53232 | 13121 ft | 280 kts | 25° |
| 2026-05-04 04:50 | -34.86253 | 149.54549 | 13124 ft | 281 kts | 26° |
| 2026-05-04 04:51 | -34.84648 | 149.55907 | 13131 ft | 281 kts | 26° |
| 2026-05-04 04:51 | -34.83026 | 149.57237 | 13135 ft | 282 kts | 25° |
| 2026-05-04 04:51 | -34.81392 | 149.58586 | 13115 ft | 284 kts | 26° |
| 2026-05-04 04:51 | -34.79771 | 149.59940 | 13117 ft | 282 kts | 26° |
| 2026-05-04 04:52 | -34.78144 | 149.61277 | 13111 ft | 282 kts | 26° |
| 2026-05-04 04:52 | -34.77066 | 149.62164 | 13112 ft | 283 kts | 26° |
| 2026-05-04 04:52 | -34.75439 | 149.63516 | 13112 ft | 283 kts | 26° |
| 2026-05-04 04:52 | -34.73807 | 149.64861 | 13113 ft | 283 kts | 26° |
| 2026-05-04 04:53 | -34.72176 | 149.66206 | 13113 ft | 283 kts | 26° |
| 2026-05-04 04:53 | -34.70545 | 149.67553 | 13116 ft | 283 kts | 26° |
| 2026-05-04 04:53 | -34.68916 | 149.68896 | 13117 ft | 283 kts | 26° |
| 2026-05-04 04:53 | -34.67288 | 149.70238 | 13118 ft | 283 kts | 26° |
| 2026-05-04 04:54 | -34.65659 | 149.71579 | 13109 ft | 283 kts | 26° |
| 2026-05-04 04:54 | -34.64033 | 149.72919 | 13111 ft | 282 kts | 26° |
| 2026-05-04 04:54 | -34.62410 | 149.74255 | 13108 ft | 282 kts | 26° |
| 2026-05-04 04:54 | -34.60784 | 149.75591 | 13110 ft | 282 kts | 26° |
| 2026-05-04 04:55 | -34.59158 | 149.76929 | 13111 ft | 283 kts | 26° |
| 2026-05-04 04:55 | -34.57598 | 149.78208 | 13110 ft | 282 kts | 26° |
| 2026-05-04 04:55 | -34.55971 | 149.79544 | 13108 ft | 282 kts | 26° |
| 2026-05-04 04:55 | -34.54348 | 149.80885 | 13108 ft | 282 kts | 26° |
| 2026-05-04 04:56 | -34.52720 | 149.82214 | 13104 ft | 282 kts | 26° |
| 2026-05-04 04:56 | -34.51101 | 149.83544 | 13105 ft | 281 kts | 26° |
| 2026-05-04 04:56 | -34.49479 | 149.84875 | 13109 ft | 281 kts | 26° |
| 2026-05-04 04:56 | -34.47855 | 149.86202 | 13110 ft | 282 kts | 26° |
| 2026-05-04 04:57 | -34.46231 | 149.87533 | 13110 ft | 282 kts | 26° |
| 2026-05-04 04:57 | -34.44604 | 149.88871 | 13100 ft | 283 kts | 27° |
| 2026-05-04 04:57 | -34.42978 | 149.90199 | 13110 ft | 281 kts | 26° |
| 2026-05-04 04:57 | -34.41354 | 149.91518 | 13111 ft | 281 kts | 27° |
| 2026-05-04 04:58 | -34.39735 | 149.92855 | 13113 ft | 282 kts | 27° |
| 2026-05-04 04:58 | -34.38105 | 149.94183 | 13110 ft | 282 kts | 26° |
| 2026-05-04 04:58 | -34.36472 | 149.95504 | 13107 ft | 282 kts | 26° |
| 2026-05-04 04:58 | -34.34850 | 149.96836 | 13102 ft | 281 kts | 27° |
| 2026-05-04 04:59 | -34.33235 | 149.98174 | 13112 ft | 282 kts | 26° |
| 2026-05-04 04:59 | -34.31592 | 149.99488 | 13063 ft | 284 kts | 26° |
| 2026-05-04 04:59 | -34.29954 | 150.00820 | 13044 ft | 284 kts | 27° |
| 2026-05-04 04:59 | -34.28320 | 150.02174 | 13030 ft | 284 kts | 27° |
| 2026-05-04 05:00 | -34.26683 | 150.03495 | 13009 ft | 282 kts | 26° |
| 2026-05-04 05:00 | -34.25053 | 150.04816 | 13017 ft | 283 kts | 27° |
| 2026-05-04 05:00 | -34.21799 | 150.07466 | 13010 ft | 281 kts | 27° |
| 2026-05-04 05:01 | -34.20181 | 150.08798 | 13013 ft | 281 kts | 26° |
| 2026-05-04 05:01 | -34.18602 | 150.10209 | 13011 ft | 289 kts | 38° |
| 2026-05-04 05:01 | -34.17508 | 150.12305 | 13012 ft | 304 kts | 60° |
| 2026-05-04 05:01 | -34.16994 | 150.14825 | 12931 ft | 312 kts | 73° |
| 2026-05-04 05:02 | -34.16480 | 150.17400 | 12533 ft | 317 kts | 67° |
| 2026-05-04 05:02 | -34.15836 | 150.19958 | 12159 ft | 320 kts | 66° |
| 2026-05-04 05:02 | -34.15256 | 150.22576 | 11790 ft | 324 kts | 70° |
| 2026-05-04 05:02 | -34.14738 | 150.25220 | 11430 ft | 322 kts | 70° |
| 2026-05-04 05:03 | -34.14148 | 150.27812 | 11067 ft | 319 kts | 68° |
| 2026-05-04 05:03 | -34.13572 | 150.30395 | 10707 ft | 319 kts | 70° |
| 2026-05-04 05:04 | -34.11903 | 150.38105 | 9615 ft | 314 kts | 70° |
| 2026-05-04 05:04 | -34.11372 | 150.40625 | 9229 ft | 296 kts | 70° |
| 2026-05-04 05:04 | -34.10888 | 150.42808 | 8984 ft | 262 kts | 68° |
| 2026-05-04 05:06 | -34.07490 | 150.58350 | 7934 ft | 277 kts | 70° |
| 2026-05-04 05:06 | -34.07012 | 150.60640 | 7929 ft | 284 kts | 69° |
| 2026-05-04 05:06 | -34.06503 | 150.62954 | 7931 ft | 286 kts | 69° |
| 2026-05-04 05:07 | -34.05998 | 150.65281 | 7932 ft | 288 kts | 70° |
| 2026-05-04 05:07 | -34.05497 | 150.67619 | 7931 ft | 288 kts | 69° |
| 2026-05-04 05:07 | -34.04985 | 150.69952 | 7922 ft | 289 kts | 69° |
| 2026-05-04 05:09 | -34.01486 | 150.85510 | 5022 ft | 220 kts | 68° |
| 2026-05-04 05:09 | -34.01089 | 150.87261 | 4939 ft | 213 kts | 66° |
| 2026-05-04 05:10 | -34.00690 | 150.88948 | 4915 ft | 206 kts | 66° |
| 2026-05-04 05:10 | -34.00305 | 150.90603 | 4916 ft | 203 kts | 65° |
| 2026-05-04 05:10 | -33.99920 | 150.92239 | 4900 ft | 204 kts | 66° |
| 2026-05-04 05:10 | -33.99531 | 150.93923 | 4659 ft | 212 kts | 66° |
| 2026-05-04 05:11 | -33.99130 | 150.95647 | 4412 ft | 215 kts | 66° |
| 2026-05-04 05:11 | -33.98729 | 150.97374 | 4163 ft | 214 kts | 66° |
| 2026-05-04 05:11 | -33.98441 | 150.99135 | 3912 ft | 220 kts | 86° |
| 2026-05-04 05:11 | -33.98941 | 151.00898 | 3669 ft | 229 kts | 125° |
| 2026-05-04 05:12 | -34.00214 | 151.02097 | 3440 ft | 241 kts | 157° |
| 2026-05-04 05:12 | -34.01758 | 151.02840 | 3200 ft | 238 kts | 162° |
| 2026-05-04 05:12 | -34.03299 | 151.03511 | 3023 ft | 232 kts | 163° |
| 2026-05-04 05:12 | -34.04792 | 151.04174 | 2979 ft | 227 kts | 162° |
| 2026-05-04 05:13 | -34.06262 | 151.04805 | 2930 ft | 222 kts | 162° |
| 2026-05-04 05:13 | -34.07726 | 151.05371 | 2943 ft | 220 kts | 163° |
| 2026-05-04 05:13 | -34.09251 | 151.05986 | 2948 ft | 243 kts | 163° |
| 2026-05-04 05:13 | -34.10904 | 151.06670 | 2941 ft | 257 kts | 162° |
| 2026-05-04 05:14 | -34.12604 | 151.07372 | 2941 ft | 260 kts | 162° |
| 2026-05-04 05:14 | -34.14313 | 151.08108 | 2924 ft | 258 kts | 162° |
| 2026-05-04 05:14 | -34.15986 | 151.08833 | 2933 ft | 255 kts | 162° |
| 2026-05-04 05:14 | -34.17691 | 151.09562 | 2935 ft | 264 kts | 163° |
| 2026-05-04 05:15 | -34.19416 | 151.10318 | 2938 ft | 264 kts | 153° |
| 2026-05-04 05:15 | -34.20768 | 151.11774 | 2942 ft | 261 kts | 120° |
| 2026-05-04 05:15 | -34.21380 | 151.13793 | 2942 ft | 254 kts | 97° |
| 2026-05-04 05:15 | -34.21668 | 151.15901 | 2938 ft | 255 kts | 94° |
| 2026-05-04 05:16 | -34.21919 | 151.18026 | 2937 ft | 257 kts | 93° |
| 2026-05-04 05:16 | -34.22152 | 151.20203 | 2938 ft | 264 kts | 90° |
| 2026-05-04 05:16 | -34.21866 | 151.22344 | 2934 ft | 256 kts | 59° |
| 2026-05-04 05:16 | -34.20789 | 151.23956 | 2936 ft | 245 kts | 31° |
| 2026-05-04 05:17 | -34.19337 | 151.24936 | 3130 ft | 230 kts | 11° |
| 2026-05-04 05:17 | -34.17868 | 151.24987 | 2887 ft | 196 kts | 342° |
| 2026-05-04 05:17 | -34.16626 | 151.24421 | 2510 ft | 182 kts | 332° |
| 2026-05-04 05:17 | -34.15442 | 151.23762 | 2501 ft | 199 kts | 337° |
| 2026-05-04 05:18 | -34.14036 | 151.23219 | 2415 ft | 221 kts | 341° |
| 2026-05-04 05:18 | -34.12550 | 151.22726 | 2467 ft | 226 kts | 343° |
| 2026-05-04 05:18 | -34.11034 | 151.22192 | 2605 ft | 228 kts | 342° |
| 2026-05-04 05:18 | -34.09543 | 151.21656 | 2695 ft | 207 kts | 342° |
| 2026-05-04 05:19 | -34.08238 | 151.21212 | 2285 ft | 178 kts | 345° |
| 2026-05-04 05:19 | -34.07084 | 151.20897 | 2013 ft | 174 kts | 345° |
| 2026-05-04 05:19 | -34.05880 | 151.20565 | 1878 ft | 179 kts | 346° |
| 2026-05-04 05:19 | -34.04767 | 151.20275 | 1699 ft | 149 kts | 347° |
| 2026-05-04 05:20 | -34.03770 | 151.20017 | 1473 ft | 147 kts | 345° |
| 2026-05-04 05:20 | -34.02752 | 151.19718 | 1263 ft | 157 kts | 347° |
| 2026-05-04 05:20 | -34.01656 | 151.19414 | 1093 ft | 163 kts | 348° |
| 2026-05-04 05:20 | -34.00546 | 151.19132 | 812 ft | 163 kts | 349° |
| 2026-05-04 05:21 | -33.99441 | 151.18802 | 631 ft | 166 kts | 351° |
| 2026-05-04 05:21 | -33.98360 | 151.18558 | 390 ft | 142 kts | 350° |
| 2026-05-04 05:21 | -33.97432 | 151.18306 | 257 ft | 132 kts | 350° |
| 2026-05-04 05:21 | -33.96541 | 151.18093 | 103 ft | 129 kts | 351° |
| 2026-05-04 05:22 | -33.95735 | 151.17883 | 26 ft | 104 kts | 352° |
| 2026-05-04 05:22 | -33.95143 | 151.17732 | 23 ft | 60 kts | 347° |
| 2026-05-04 05:22 | -33.94849 | 151.17659 | 25 ft | 39 kts | 347° |
| 2026-05-04 05:22 | -33.94602 | 151.17654 | 25 ft | 25 kts | 12° |
| 2026-05-04 05:23 | -33.94457 | 151.17704 | 26 ft | 1 kts | 18° |
| 2026-05-04 05:23 | -33.94455 | 151.17705 | 26 ft | 0 kts | 18° |
| 2026-05-04 05:24 | -33.94437 | 151.17714 | 26 ft | 12 kts | 23° |
| 2026-05-04 05:24 | -33.94303 | 151.17729 | 25 ft | 21 kts | 346° |
| 2026-05-04 05:25 | -33.94190 | 151.17690 | 25 ft | 14 kts | 345° |
| 2026-05-04 05:25 | -33.94138 | 151.17674 | 27 ft | 12 kts | 350° |
| 2026-05-04 05:25 | -33.94023 | 151.17644 | 24 ft | 22 kts | 349° |
| 2026-05-04 05:25 | -33.93958 | 151.17626 | 24 ft | 0 kts | 347° |
| 2026-05-04 05:26 | -33.93953 | 151.17625 | 24 ft | 3 kts | 348° |
| 2026-05-04 05:26 | -33.93898 | 151.17612 | 25 ft | 11 kts | 358° |
| 2026-05-04 05:27 | -33.93869 | 151.17664 | 25 ft | 10 kts | 71° |
| 2026-05-04 05:28 | -33.93629 | 151.18114 | 26 ft | 0 kts | 71° |